TAF EPSY 012330Z 0200/0209 26008KT 7000 OVC007 TEMPO 0200/0209 4000 BR OVC004=